sensor_id;sensor_type;location;lat;lon;timestamp;pressure;altitude;pressure_sealevel;temperature
58929;BMP180;44713;53.378;10.022;2022-10-17T00:01:44;101675.00;;;11.70
58929;BMP180;44713;53.378;10.022;2022-10-17T00:04:09;101672.00;;;11.70
58929;BMP180;44713;53.378;10.022;2022-10-17T00:06:35;101672.00;;;11.70
58929;BMP180;44713;53.378;10.022;2022-10-17T00:09:01;101674.00;;;11.60
58929;BMP180;44713;53.378;10.022;2022-10-17T00:11:27;101684.00;;;11.50
58929;BMP180;44713;53.378;10.022;2022-10-17T00:13:54;101694.00;;;11.40
58929;BMP180;44713;53.378;10.022;2022-10-17T00:16:39;101709.00;;;11.40
58929;BMP180;44713;53.378;10.022;2022-10-17T00:19:06;101704.00;;;11.40
58929;BMP180;44713;53.378;10.022;2022-10-17T00:21:31;101702.00;;;11.50
58929;BMP180;44713;53.378;10.022;2022-10-17T00:23:58;101707.00;;;11.50
58929;BMP180;44713;53.378;10.022;2022-10-17T00:26:23;101699.00;;;11.50
58929;BMP180;44713;53.378;10.022;2022-10-17T00:28:50;101711.00;;;11.50
58929;BMP180;44713;53.378;10.022;2022-10-17T00:31:18;101707.00;;;11.50
58929;BMP180;44713;53.378;10.022;2022-10-17T00:33:43;101704.00;;;11.60
58929;BMP180;44713;53.378;10.022;2022-10-17T00:36:15;101691.00;;;11.60
58929;BMP180;44713;53.378;10.022;2022-10-17T00:38:42;101689.00;;;11.60
58929;BMP180;44713;53.378;10.022;2022-10-17T00:41:10;101697.00;;;11.60
58929;BMP180;44713;53.378;10.022;2022-10-17T00:43:50;101691.00;;;11.50
58929;BMP180;44713;53.378;10.022;2022-10-17T00:46:15;101699.00;;;11.60
58929;BMP180;44713;53.378;10.022;2022-10-17T00:48:41;101681.00;;;11.60
58929;BMP180;44713;53.378;10.022;2022-10-17T00:51:07;101676.00;;;11.70
58929;BMP180;44713;53.378;10.022;2022-10-17T00:53:32;101682.00;;;11.70
58929;BMP180;44713;53.378;10.022;2022-10-17T00:56:00;101684.00;;;11.70
58929;BMP180;44713;53.378;10.022;2022-10-17T00:58:25;101679.00;;;11.70
58929;BMP180;44713;53.378;10.022;2022-10-17T01:00:51;101690.00;;;11.60
58929;BMP180;44713;53.378;10.022;2022-10-17T01:03:16;101705.00;;;11.50
58929;BMP180;44713;53.378;10.022;2022-10-17T01:05:41;101702.00;;;11.60
58929;BMP180;44713;53.378;10.022;2022-10-17T01:08:07;101702.00;;;11.60
58929;BMP180;44713;53.378;10.022;2022-10-17T01:10:42;101708.00;;;11.70
58929;BMP180;44713;53.378;10.022;2022-10-17T01:13:28;101705.00;;;11.70
58929;BMP180;44713;53.378;10.022;2022-10-17T01:16:02;101710.00;;;11.70
58929;BMP180;44713;53.378;10.022;2022-10-17T01:18:55;101699.00;;;11.80
58929;BMP180;44713;53.378;10.022;2022-10-17T01:21:49;101691.00;;;11.80
58929;BMP180;44713;53.378;10.022;2022-10-17T01:24:35;101687.00;;;11.80
58929;BMP180;44713;53.378;10.022;2022-10-17T01:30:04;101701.00;;;11.80
58929;BMP180;44713;53.378;10.022;2022-10-17T01:32:57;101694.00;;;11.60
58929;BMP180;44713;53.378;10.022;2022-10-17T01:35:57;101697.00;;;11.70
58929;BMP180;44713;53.378;10.022;2022-10-17T01:38:29;101691.00;;;11.70
58929;BMP180;44713;53.378;10.022;2022-10-17T01:41:02;101694.00;;;11.80
58929;BMP180;44713;53.378;10.022;2022-10-17T01:43:47;101693.00;;;11.90
58929;BMP180;44713;53.378;10.022;2022-10-17T01:46:30;101690.00;;;11.90
58929;BMP180;44713;53.378;10.022;2022-10-17T01:48:59;101691.00;;;11.90
58929;BMP180;44713;53.378;10.022;2022-10-17T01:51:41;101695.00;;;11.90
58929;BMP180;44713;53.378;10.022;2022-10-17T01:54:16;101700.00;;;11.90
58929;BMP180;44713;53.378;10.022;2022-10-17T01:56:45;101693.00;;;12.00
58929;BMP180;44713;53.378;10.022;2022-10-17T01:59:15;101686.00;;;12.00
58929;BMP180;44713;53.378;10.022;2022-10-17T02:01:43;101689.00;;;12.00
58929;BMP180;44713;53.378;10.022;2022-10-17T02:04:10;101687.00;;;12.10
58929;BMP180;44713;53.378;10.022;2022-10-17T02:06:36;101682.00;;;12.10
58929;BMP180;44713;53.378;10.022;2022-10-17T02:09:24;101675.00;;;12.10
58929;BMP180;44713;53.378;10.022;2022-10-17T02:12:17;101677.00;;;12.10
58929;BMP180;44713;53.378;10.022;2022-10-17T02:17:47;101662.00;;;12.10
58929;BMP180;44713;53.378;10.022;2022-10-17T02:20:23;101669.00;;;12.10
58929;BMP180;44713;53.378;10.022;2022-10-17T02:23:12;101662.00;;;12.10
58929;BMP180;44713;53.378;10.022;2022-10-17T02:25:50;101656.00;;;12.10
58929;BMP180;44713;53.378;10.022;2022-10-17T02:28:32;101653.00;;;12.10
58929;BMP180;44713;53.378;10.022;2022-10-17T02:31:06;101654.00;;;12.10
58929;BMP180;44713;53.378;10.022;2022-10-17T02:33:41;101644.00;;;12.10
58929;BMP180;44713;53.378;10.022;2022-10-17T02:36:11;101649.00;;;12.20
58929;BMP180;44713;53.378;10.022;2022-10-17T02:38:38;101644.00;;;12.10
58929;BMP180;44713;53.378;10.022;2022-10-17T02:41:06;101639.00;;;12.10
58929;BMP180;44713;53.378;10.022;2022-10-17T02:43:33;101640.00;;;12.10
58929;BMP180;44713;53.378;10.022;2022-10-17T02:46:00;101641.00;;;12.10
58929;BMP180;44713;53.378;10.022;2022-10-17T02:48:36;101642.00;;;12.10
58929;BMP180;44713;53.378;10.022;2022-10-17T02:51:22;101648.00;;;12.10
58929;BMP180;44713;53.378;10.022;2022-10-17T02:54:05;101641.00;;;12.10
58929;BMP180;44713;53.378;10.022;2022-10-17T02:56:41;101632.00;;;12.10
58929;BMP180;44713;53.378;10.022;2022-10-17T02:59:10;101628.00;;;12.10
58929;BMP180;44713;53.378;10.022;2022-10-17T03:01:37;101625.00;;;12.00
58929;BMP180;44713;53.378;10.022;2022-10-17T03:04:13;101625.00;;;12.00
58929;BMP180;44713;53.378;10.022;2022-10-17T03:06:40;101629.00;;;11.90
58929;BMP180;44713;53.378;10.022;2022-10-17T03:09:07;101628.00;;;11.90
58929;BMP180;44713;53.378;10.022;2022-10-17T03:11:33;101619.00;;;11.90
58929;BMP180;44713;53.378;10.022;2022-10-17T03:13:58;101617.00;;;11.90
58929;BMP180;44713;53.378;10.022;2022-10-17T03:16:25;101613.00;;;11.80
58929;BMP180;44713;53.378;10.022;2022-10-17T03:18:50;101618.00;;;11.80
58929;BMP180;44713;53.378;10.022;2022-10-17T03:21:16;101616.00;;;11.80
58929;BMP180;44713;53.378;10.022;2022-10-17T03:23:41;101615.00;;;11.70
58929;BMP180;44713;53.378;10.022;2022-10-17T03:26:09;101619.00;;;11.70
58929;BMP180;44713;53.378;10.022;2022-10-17T03:28:35;101615.00;;;11.60
58929;BMP180;44713;53.378;10.022;2022-10-17T03:31:08;101608.00;;;11.70
58929;BMP180;44713;53.378;10.022;2022-10-17T03:33:36;101606.00;;;11.70
58929;BMP180;44713;53.378;10.022;2022-10-17T03:36:10;101604.00;;;11.60
58929;BMP180;44713;53.378;10.022;2022-10-17T03:38:36;101601.00;;;11.60
58929;BMP180;44713;53.378;10.022;2022-10-17T03:41:03;101609.00;;;11.60
58929;BMP180;44713;53.378;10.022;2022-10-17T03:43:29;101604.00;;;11.60
58929;BMP180;44713;53.378;10.022;2022-10-17T03:45:57;101607.00;;;11.60
58929;BMP180;44713;53.378;10.022;2022-10-17T03:48:26;101597.00;;;11.50
58929;BMP180;44713;53.378;10.022;2022-10-17T03:50:57;101599.00;;;11.50
58929;BMP180;44713;53.378;10.022;2022-10-17T03:53:23;101599.00;;;11.50
58929;BMP180;44713;53.378;10.022;2022-10-17T03:55:49;101593.00;;;11.50
58929;BMP180;44713;53.378;10.022;2022-10-17T03:58:14;101591.00;;;11.50
58929;BMP180;44713;53.378;10.022;2022-10-17T04:00:39;101589.00;;;11.40
58929;BMP180;44713;53.378;10.022;2022-10-17T04:03:05;101602.00;;;11.40
58929;BMP180;44713;53.378;10.022;2022-10-17T04:05:30;101597.00;;;11.40
58929;BMP180;44713;53.378;10.022;2022-10-17T04:07:56;101604.00;;;11.30
58929;BMP180;44713;53.378;10.022;2022-10-17T04:10:35;101612.00;;;11.30
58929;BMP180;44713;53.378;10.022;2022-10-17T04:13:01;101606.00;;;11.40
58929;BMP180;44713;53.378;10.022;2022-10-17T04:15:26;101605.00;;;11.30
58929;BMP180;44713;53.378;10.022;2022-10-17T04:17:52;101604.00;;;11.30
58929;BMP180;44713;53.378;10.022;2022-10-17T04:20:17;101604.00;;;11.30
58929;BMP180;44713;53.378;10.022;2022-10-17T04:22:43;101594.00;;;11.30
58929;BMP180;44713;53.378;10.022;2022-10-17T04:25:09;101598.00;;;11.30
58929;BMP180;44713;53.378;10.022;2022-10-17T04:27:38;101600.00;;;11.30
58929;BMP180;44713;53.378;10.022;2022-10-17T04:30:04;101595.00;;;11.30
58929;BMP180;44713;53.378;10.022;2022-10-17T04:32:35;101592.00;;;11.20
58929;BMP180;44713;53.378;10.022;2022-10-17T04:35:12;101586.00;;;11.20
58929;BMP180;44713;53.378;10.022;2022-10-17T04:37:43;101586.00;;;11.20
58929;BMP180;44713;53.378;10.022;2022-10-17T04:40:15;101579.00;;;11.20
58929;BMP180;44713;53.378;10.022;2022-10-17T04:42:41;101585.00;;;11.10
58929;BMP180;44713;53.378;10.022;2022-10-17T04:45:09;101587.00;;;11.10
58929;BMP180;44713;53.378;10.022;2022-10-17T04:47:35;101580.00;;;11.10
58929;BMP180;44713;53.378;10.022;2022-10-17T04:50:00;101573.00;;;11.10
58929;BMP180;44713;53.378;10.022;2022-10-17T04:52:28;101574.00;;;11.10
58929;BMP180;44713;53.378;10.022;2022-10-17T04:54:54;101570.00;;;11.10
58929;BMP180;44713;53.378;10.022;2022-10-17T04:57:20;101574.00;;;11.00
58929;BMP180;44713;53.378;10.022;2022-10-17T04:59:55;101579.00;;;11.00
58929;BMP180;44713;53.378;10.022;2022-10-17T05:02:49;101571.00;;;11.00
58929;BMP180;44713;53.378;10.022;2022-10-17T05:05:14;101572.00;;;11.00
58929;BMP180;44713;53.378;10.022;2022-10-17T05:07:42;101561.00;;;10.90
58929;BMP180;44713;53.378;10.022;2022-10-17T05:10:18;101564.00;;;10.90
58929;BMP180;44713;53.378;10.022;2022-10-17T05:12:47;101566.00;;;10.90
58929;BMP180;44713;53.378;10.022;2022-10-17T05:15:14;101562.00;;;10.90
58929;BMP180;44713;53.378;10.022;2022-10-17T05:17:40;101564.00;;;10.90
58929;BMP180;44713;53.378;10.022;2022-10-17T05:20:06;101565.00;;;10.80
58929;BMP180;44713;53.378;10.022;2022-10-17T05:22:33;101563.00;;;10.80
58929;BMP180;44713;53.378;10.022;2022-10-17T05:24:58;101560.00;;;10.80
58929;BMP180;44713;53.378;10.022;2022-10-17T05:27:24;101564.00;;;10.80
58929;BMP180;44713;53.378;10.022;2022-10-17T05:29:49;101568.00;;;10.80
58929;BMP180;44713;53.378;10.022;2022-10-17T05:32:21;101563.00;;;10.70
58929;BMP180;44713;53.378;10.022;2022-10-17T05:34:47;101554.00;;;10.70
58929;BMP180;44713;53.378;10.022;2022-10-17T05:37:12;101560.00;;;10.70
58929;BMP180;44713;53.378;10.022;2022-10-17T05:39:40;101564.00;;;10.70
58929;BMP180;44713;53.378;10.022;2022-10-17T05:42:07;101563.00;;;10.70
58929;BMP180;44713;53.378;10.022;2022-10-17T05:44:34;101563.00;;;10.70
58929;BMP180;44713;53.378;10.022;2022-10-17T05:46:59;101565.00;;;10.70
58929;BMP180;44713;53.378;10.022;2022-10-17T05:49:26;101562.00;;;10.60
58929;BMP180;44713;53.378;10.022;2022-10-17T05:51:52;101561.00;;;10.50
58929;BMP180;44713;53.378;10.022;2022-10-17T05:54:17;101568.00;;;10.50
58929;BMP180;44713;53.378;10.022;2022-10-17T05:56:44;101567.00;;;10.50
58929;BMP180;44713;53.378;10.022;2022-10-17T05:59:09;101569.00;;;10.50
58929;BMP180;44713;53.378;10.022;2022-10-17T06:01:54;101571.00;;;10.50
58929;BMP180;44713;53.378;10.022;2022-10-17T06:04:20;101568.00;;;10.50
58929;BMP180;44713;53.378;10.022;2022-10-17T06:06:45;101574.00;;;10.50
58929;BMP180;44713;53.378;10.022;2022-10-17T06:09:11;101573.00;;;10.50
58929;BMP180;44713;53.378;10.022;2022-10-17T06:11:41;101572.00;;;10.60
58929;BMP180;44713;53.378;10.022;2022-10-17T06:14:06;101571.00;;;10.60
58929;BMP180;44713;53.378;10.022;2022-10-17T06:16:33;101566.00;;;10.50
58929;BMP180;44713;53.378;10.022;2022-10-17T06:18:58;101562.00;;;10.60
58929;BMP180;44713;53.378;10.022;2022-10-17T06:21:25;101569.00;;;10.60
58929;BMP180;44713;53.378;10.022;2022-10-17T06:23:55;101568.00;;;10.60
58929;BMP180;44713;53.378;10.022;2022-10-17T06:26:30;101565.00;;;10.60
58929;BMP180;44713;53.378;10.022;2022-10-17T06:28:55;101581.00;;;10.60
58929;BMP180;44713;53.378;10.022;2022-10-17T06:31:22;101576.00;;;10.60
58929;BMP180;44713;53.378;10.022;2022-10-17T06:33:48;101578.00;;;10.70
58929;BMP180;44713;53.378;10.022;2022-10-17T06:36:13;101578.00;;;10.70
58929;BMP180;44713;53.378;10.022;2022-10-17T06:38:39;101570.00;;;10.70
58929;BMP180;44713;53.378;10.022;2022-10-17T06:41:13;101568.00;;;10.70
58929;BMP180;44713;53.378;10.022;2022-10-17T06:43:41;101573.00;;;10.70
58929;BMP180;44713;53.378;10.022;2022-10-17T06:46:27;101563.00;;;10.80
58929;BMP180;44713;53.378;10.022;2022-10-17T06:49:03;101566.00;;;10.80
58929;BMP180;44713;53.378;10.022;2022-10-17T06:52:01;101556.00;;;10.90
58929;BMP180;44713;53.378;10.022;2022-10-17T06:54:36;101553.00;;;11.00
58929;BMP180;44713;53.378;10.022;2022-10-17T06:57:26;101563.00;;;11.00
58929;BMP180;44713;53.378;10.022;2022-10-17T07:00:18;101571.00;;;11.10
58929;BMP180;44713;53.378;10.022;2022-10-17T07:02:48;101577.00;;;11.10
58929;BMP180;44713;53.378;10.022;2022-10-17T07:05:14;101583.00;;;11.10
58929;BMP180;44713;53.378;10.022;2022-10-17T07:07:39;101577.00;;;11.20
58929;BMP180;44713;53.378;10.022;2022-10-17T07:10:05;101561.00;;;11.30
58929;BMP180;44713;53.378;10.022;2022-10-17T07:12:34;101569.00;;;11.40
58929;BMP180;44713;53.378;10.022;2022-10-17T07:15:00;101569.00;;;11.50
58929;BMP180;44713;53.378;10.022;2022-10-17T07:17:25;101562.00;;;11.50
58929;BMP180;44713;53.378;10.022;2022-10-17T07:19:51;101570.00;;;11.60
58929;BMP180;44713;53.378;10.022;2022-10-17T07:22:16;101568.00;;;11.70
58929;BMP180;44713;53.378;10.022;2022-10-17T07:24:45;101570.00;;;11.80
58929;BMP180;44713;53.378;10.022;2022-10-17T07:27:23;101574.00;;;11.90
58929;BMP180;44713;53.378;10.022;2022-10-17T07:29:49;101587.00;;;12.10
58929;BMP180;44713;53.378;10.022;2022-10-17T07:32:19;101592.00;;;12.20
58929;BMP180;44713;53.378;10.022;2022-10-17T07:34:45;101586.00;;;12.30
58929;BMP180;44713;53.378;10.022;2022-10-17T07:37:10;101584.00;;;12.30
58929;BMP180;44713;53.378;10.022;2022-10-17T07:39:37;101597.00;;;12.40
58929;BMP180;44713;53.378;10.022;2022-10-17T07:42:04;101598.00;;;12.60
58929;BMP180;44713;53.378;10.022;2022-10-17T07:44:32;101589.00;;;12.80
58929;BMP180;44713;53.378;10.022;2022-10-17T07:46:58;101595.00;;;13.10
58929;BMP180;44713;53.378;10.022;2022-10-17T07:49:23;101590.00;;;13.30
58929;BMP180;44713;53.378;10.022;2022-10-17T07:51:48;101597.00;;;13.60
58929;BMP180;44713;53.378;10.022;2022-10-17T07:54:14;101594.00;;;13.70
58929;BMP180;44713;53.378;10.022;2022-10-17T07:56:39;101583.00;;;14.00
58929;BMP180;44713;53.378;10.022;2022-10-17T07:59:05;101588.00;;;14.10
58929;BMP180;44713;53.378;10.022;2022-10-17T08:01:30;101590.00;;;14.40
58929;BMP180;44713;53.378;10.022;2022-10-17T08:04:00;101588.00;;;14.70
58929;BMP180;44713;53.378;10.022;2022-10-17T08:06:26;101586.00;;;14.80
58929;BMP180;44713;53.378;10.022;2022-10-17T08:08:51;101581.00;;;15.00
58929;BMP180;44713;53.378;10.022;2022-10-17T08:11:16;101582.00;;;15.00
58929;BMP180;44713;53.378;10.022;2022-10-17T08:13:42;101578.00;;;15.00
58929;BMP180;44713;53.378;10.022;2022-10-17T08:16:09;101582.00;;;15.20
58929;BMP180;44713;53.378;10.022;2022-10-17T08:18:35;101589.00;;;15.30
58929;BMP180;44713;53.378;10.022;2022-10-17T08:21:03;101571.00;;;15.40
58929;BMP180;44713;53.378;10.022;2022-10-17T08:23:30;101577.00;;;15.60
58929;BMP180;44713;53.378;10.022;2022-10-17T08:26:00;101568.00;;;15.60
58929;BMP180;44713;53.378;10.022;2022-10-17T08:28:25;101573.00;;;15.60
58929;BMP180;44713;53.378;10.022;2022-10-17T08:30:50;101573.00;;;15.80
58929;BMP180;44713;53.378;10.022;2022-10-17T08:33:16;101571.00;;;15.80
58929;BMP180;44713;53.378;10.022;2022-10-17T08:35:41;101553.00;;;15.90
58929;BMP180;44713;53.378;10.022;2022-10-17T08:38:07;101554.00;;;16.00
58929;BMP180;44713;53.378;10.022;2022-10-17T08:40:32;101565.00;;;16.10
58929;BMP180;44713;53.378;10.022;2022-10-17T08:43:21;101565.00;;;16.20
58929;BMP180;44713;53.378;10.022;2022-10-17T08:46:02;101554.00;;;16.30
58929;BMP180;44713;53.378;10.022;2022-10-17T08:48:31;101551.00;;;16.50
58929;BMP180;44713;53.378;10.022;2022-10-17T08:51:01;101554.00;;;16.70
58929;BMP180;44713;53.378;10.022;2022-10-17T08:56:59;101556.00;;;17.00
58929;BMP180;44713;53.378;10.022;2022-10-17T08:59:00;101564.00;;;17.10
58929;BMP180;44713;53.378;10.022;2022-10-17T09:01:35;101575.00;;;17.20
58929;BMP180;44713;53.378;10.022;2022-10-17T09:06:50;101558.00;;;17.30
58929;BMP180;44713;53.378;10.022;2022-10-17T09:15:02;101557.00;;;17.60
58929;BMP180;44713;53.378;10.022;2022-10-17T09:17:52;101564.00;;;17.80
58929;BMP180;44713;53.378;10.022;2022-10-17T09:20:30;101559.00;;;17.90
58929;BMP180;44713;53.378;10.022;2022-10-17T09:22:59;101563.00;;;18.00
58929;BMP180;44713;53.378;10.022;2022-10-17T09:25:26;101564.00;;;18.10
58929;BMP180;44713;53.378;10.022;2022-10-17T09:28:03;101566.00;;;18.20
58929;BMP180;44713;53.378;10.022;2022-10-17T09:30:34;101569.00;;;18.40
58929;BMP180;44713;53.378;10.022;2022-10-17T09:33:19;101559.00;;;18.60
58929;BMP180;44713;53.378;10.022;2022-10-17T09:35:45;101553.00;;;18.80
58929;BMP180;44713;53.378;10.022;2022-10-17T09:38:39;101558.00;;;19.00
58929;BMP180;44713;53.378;10.022;2022-10-17T09:41:10;101561.00;;;19.10
58929;BMP180;44713;53.378;10.022;2022-10-17T09:43:38;101561.00;;;19.20
58929;BMP180;44713;53.378;10.022;2022-10-17T09:46:27;101563.00;;;19.50
58929;BMP180;44713;53.378;10.022;2022-10-17T09:49:08;101554.00;;;19.60
58929;BMP180;44713;53.378;10.022;2022-10-17T09:51:36;101561.00;;;19.70
58929;BMP180;44713;53.378;10.022;2022-10-17T09:54:04;101555.00;;;19.80
58929;BMP180;44713;53.378;10.022;2022-10-17T09:57:04;101561.00;;;19.90
58929;BMP180;44713;53.378;10.022;2022-10-17T10:00:00;101562.00;;;20.00
58929;BMP180;44713;53.378;10.022;2022-10-17T10:02:27;101561.00;;;20.00
58929;BMP180;44713;53.378;10.022;2022-10-17T10:04:54;101570.00;;;20.00
58929;BMP180;44713;53.378;10.022;2022-10-17T10:07:21;101569.00;;;20.10
58929;BMP180;44713;53.378;10.022;2022-10-17T10:09:48;101569.00;;;20.10
58929;BMP180;44713;53.378;10.022;2022-10-17T10:12:18;101574.00;;;20.20
58929;BMP180;44713;53.378;10.022;2022-10-17T10:14:44;101572.00;;;20.20
58929;BMP180;44713;53.378;10.022;2022-10-17T10:17:37;101570.00;;;20.30
58929;BMP180;44713;53.378;10.022;2022-10-17T10:20:24;101569.00;;;20.30
58929;BMP180;44713;53.378;10.022;2022-10-17T10:25:48;101583.00;;;20.50
58929;BMP180;44713;53.378;10.022;2022-10-17T10:28:14;101583.00;;;20.60
58929;BMP180;44713;53.378;10.022;2022-10-17T10:30:46;101581.00;;;20.80
58929;BMP180;44713;53.378;10.022;2022-10-17T10:33:11;101581.00;;;20.80
58929;BMP180;44713;53.378;10.022;2022-10-17T10:35:37;101579.00;;;20.80
58929;BMP180;44713;53.378;10.022;2022-10-17T10:38:08;101578.00;;;20.80
58929;BMP180;44713;53.378;10.022;2022-10-17T10:40:37;101580.00;;;20.80
58929;BMP180;44713;53.378;10.022;2022-10-17T10:43:21;101584.00;;;20.80
58929;BMP180;44713;53.378;10.022;2022-10-17T10:45:47;101577.00;;;20.90
58929;BMP180;44713;53.378;10.022;2022-10-17T10:48:20;101565.00;;;20.80
58929;BMP180;44713;53.378;10.022;2022-10-17T10:50:52;101568.00;;;20.70
58929;BMP180;44713;53.378;10.022;2022-10-17T11:01:41;101601.00;;;20.60
58929;BMP180;44713;53.378;10.022;2022-10-17T11:04:26;101598.00;;;20.60
58929;BMP180;44713;53.378;10.022;2022-10-17T11:07:02;101605.00;;;20.60
58929;BMP180;44713;53.378;10.022;2022-10-17T11:09:57;101595.00;;;20.60
58929;BMP180;44713;53.378;10.022;2022-10-17T11:12:29;101595.00;;;20.60
58929;BMP180;44713;53.378;10.022;2022-10-17T11:18:02;101600.00;;;20.70
58929;BMP180;44713;53.378;10.022;2022-10-17T11:23:55;101609.00;;;20.90
58929;BMP180;44713;53.378;10.022;2022-10-17T11:26:28;101613.00;;;21.00
58929;BMP180;44713;53.378;10.022;2022-10-17T11:28:57;101621.00;;;21.00
58929;BMP180;44713;53.378;10.022;2022-10-17T11:31:30;101606.00;;;21.00
58929;BMP180;44713;53.378;10.022;2022-10-17T11:36:28;101616.00;;;20.90
58929;BMP180;44713;53.378;10.022;2022-10-17T11:39:09;101600.00;;;20.90
58929;BMP180;44713;53.378;10.022;2022-10-17T11:41:40;101592.00;;;21.00
58929;BMP180;44713;53.378;10.022;2022-10-17T11:44:30;101609.00;;;21.00
58929;BMP180;44713;53.378;10.022;2022-10-17T11:49:52;101597.00;;;21.00
58929;BMP180;44713;53.378;10.022;2022-10-17T11:54:53;101606.00;;;21.10
58929;BMP180;44713;53.378;10.022;2022-10-17T12:02:46;101615.00;;;21.00
58929;BMP180;44713;53.378;10.022;2022-10-17T12:08:03;101624.00;;;20.90
58929;BMP180;44713;53.378;10.022;2022-10-17T12:10:36;101609.00;;;20.90
58929;BMP180;44713;53.378;10.022;2022-10-17T12:16:35;101631.00;;;20.90
58929;BMP180;44713;53.378;10.022;2022-10-17T12:21:27;101641.00;;;20.90
58929;BMP180;44713;53.378;10.022;2022-10-17T12:23:53;101634.00;;;20.90
58929;BMP180;44713;53.378;10.022;2022-10-17T12:26:28;101641.00;;;20.80
58929;BMP180;44713;53.378;10.022;2022-10-17T12:28:54;101635.00;;;20.90
58929;BMP180;44713;53.378;10.022;2022-10-17T12:31:22;101637.00;;;20.90
58929;BMP180;44713;53.378;10.022;2022-10-17T12:38:45;101649.00;;;20.90
58929;BMP180;44713;53.378;10.022;2022-10-17T12:41:12;101661.00;;;20.90
58929;BMP180;44713;53.378;10.022;2022-10-17T12:43:49;101661.00;;;20.80
58929;BMP180;44713;53.378;10.022;2022-10-17T12:49:51;101670.00;;;20.70
58929;BMP180;44713;53.378;10.022;2022-10-17T12:57:50;101683.00;;;20.60
58929;BMP180;44713;53.378;10.022;2022-10-17T13:03:16;101686.00;;;20.50
58929;BMP180;44713;53.378;10.022;2022-10-17T13:05:46;101700.00;;;20.40
58929;BMP180;44713;53.378;10.022;2022-10-17T13:08:22;101717.00;;;20.40
58929;BMP180;44713;53.378;10.022;2022-10-17T13:10:50;101733.00;;;20.40
58929;BMP180;44713;53.378;10.022;2022-10-17T13:13:32;101752.00;;;20.20
58929;BMP180;44713;53.378;10.022;2022-10-17T13:16:00;101706.00;;;20.20
58929;BMP180;44713;53.378;10.022;2022-10-17T13:18:27;101699.00;;;20.00
58929;BMP180;44713;53.378;10.022;2022-10-17T13:21:01;101692.00;;;19.60
58929;BMP180;44713;53.378;10.022;2022-10-17T13:23:35;101694.00;;;19.40
58929;BMP180;44713;53.378;10.022;2022-10-17T13:26:13;101702.00;;;19.30
58929;BMP180;44713;53.378;10.022;2022-10-17T13:28:39;101705.00;;;19.20
58929;BMP180;44713;53.378;10.022;2022-10-17T13:31:06;101705.00;;;19.20
58929;BMP180;44713;53.378;10.022;2022-10-17T13:33:36;101704.00;;;19.20
58929;BMP180;44713;53.378;10.022;2022-10-17T13:36:06;101714.00;;;19.30
58929;BMP180;44713;53.378;10.022;2022-10-17T13:38:33;101717.00;;;19.20
58929;BMP180;44713;53.378;10.022;2022-10-17T13:41:00;101738.00;;;19.20
58929;BMP180;44713;53.378;10.022;2022-10-17T13:43:26;101779.00;;;19.00
58929;BMP180;44713;53.378;10.022;2022-10-17T13:45:59;101800.00;;;18.90
58929;BMP180;44713;53.378;10.022;2022-10-17T13:48:31;101755.00;;;18.90
58929;BMP180;44713;53.378;10.022;2022-10-17T13:50:59;101773.00;;;18.80
58929;BMP180;44713;53.378;10.022;2022-10-17T13:56:17;101742.00;;;18.60
58929;BMP180;44713;53.378;10.022;2022-10-17T13:58:45;101743.00;;;18.50
58929;BMP180;44713;53.378;10.022;2022-10-17T14:01:12;101753.00;;;18.40
58929;BMP180;44713;53.378;10.022;2022-10-17T14:03:40;101757.00;;;18.40
58929;BMP180;44713;53.378;10.022;2022-10-17T14:06:13;101744.00;;;18.40
58929;BMP180;44713;53.378;10.022;2022-10-17T14:08:50;101713.00;;;18.50
58929;BMP180;44713;53.378;10.022;2022-10-17T14:11:40;101706.00;;;18.50
58929;BMP180;44713;53.378;10.022;2022-10-17T14:14:15;101695.00;;;18.50
58929;BMP180;44713;53.378;10.022;2022-10-17T14:16:42;101704.00;;;18.50
58929;BMP180;44713;53.378;10.022;2022-10-17T14:19:24;101717.00;;;18.50
58929;BMP180;44713;53.378;10.022;2022-10-17T14:22:13;101717.00;;;18.50
58929;BMP180;44713;53.378;10.022;2022-10-17T14:24:39;101718.00;;;18.50
58929;BMP180;44713;53.378;10.022;2022-10-17T14:27:32;101711.00;;;18.50
58929;BMP180;44713;53.378;10.022;2022-10-17T14:30:30;101712.00;;;18.40
58929;BMP180;44713;53.378;10.022;2022-10-17T14:32:58;101727.00;;;18.50
58929;BMP180;44713;53.378;10.022;2022-10-17T14:35:25;101730.00;;;18.50
58929;BMP180;44713;53.378;10.022;2022-10-17T14:37:52;101753.00;;;18.50
58929;BMP180;44713;53.378;10.022;2022-10-17T14:40:23;101761.00;;;18.40
58929;BMP180;44713;53.378;10.022;2022-10-17T14:42:52;101776.00;;;18.40
58929;BMP180;44713;53.378;10.022;2022-10-17T14:45:25;101782.00;;;18.40
58929;BMP180;44713;53.378;10.022;2022-10-17T14:47:53;101775.00;;;18.30
58929;BMP180;44713;53.378;10.022;2022-10-17T14:50:22;101777.00;;;18.20
58929;BMP180;44713;53.378;10.022;2022-10-17T14:55:38;101780.00;;;18.20
58929;BMP180;44713;53.378;10.022;2022-10-17T14:58:25;101799.00;;;18.10
58929;BMP180;44713;53.378;10.022;2022-10-17T15:00:52;101802.00;;;18.10
58929;BMP180;44713;53.378;10.022;2022-10-17T15:03:17;101808.00;;;18.00
58929;BMP180;44713;53.378;10.022;2022-10-17T15:05:44;101806.00;;;18.10
58929;BMP180;44713;53.378;10.022;2022-10-17T15:08:12;101810.00;;;18.00
58929;BMP180;44713;53.378;10.022;2022-10-17T15:10:38;101802.00;;;18.00
58929;BMP180;44713;53.378;10.022;2022-10-17T15:13:06;101809.00;;;18.00
58929;BMP180;44713;53.378;10.022;2022-10-17T15:15:32;101810.00;;;18.00
58929;BMP180;44713;53.378;10.022;2022-10-17T15:17:58;101814.00;;;18.00
58929;BMP180;44713;53.378;10.022;2022-10-17T15:20:25;101814.00;;;18.00
58929;BMP180;44713;53.378;10.022;2022-10-17T15:22:57;101825.00;;;18.00
58929;BMP180;44713;53.378;10.022;2022-10-17T15:25:23;101828.00;;;18.00